sensor_id;sensor_type;location;lat;lon;timestamp;temperature;humidity
43099;DHT22;28715;51.988;6.020;2023-04-24T00:02:02;11.40;99.90
43099;DHT22;28715;51.988;6.020;2023-04-24T00:04:29;11.40;99.90
43099;DHT22;28715;51.988;6.020;2023-04-24T00:07:01;11.40;99.90
43099;DHT22;28715;51.988;6.020;2023-04-24T00:09:26;11.40;99.90
43099;DHT22;28715;51.988;6.020;2023-04-24T00:11:52;11.50;99.90
43099;DHT22;28715;51.988;6.020;2023-04-24T00:14:18;11.50;99.90
43099;DHT22;28715;51.988;6.020;2023-04-24T00:16:44;11.50;99.90
43099;DHT22;28715;51.988;6.020;2023-04-24T00:19:10;11.50;99.90
43099;DHT22;28715;51.988;6.020;2023-04-24T00:21:36;11.40;99.90
43099;DHT22;28715;51.988;6.020;2023-04-24T00:24:03;11.40;99.90
43099;DHT22;28715;51.988;6.020;2023-04-24T00:26:28;11.40;99.90
43099;DHT22;28715;51.988;6.020;2023-04-24T00:28:57;11.40;99.90
43099;DHT22;28715;51.988;6.020;2023-04-24T00:31:22;11.30;99.90
43099;DHT22;28715;51.988;6.020;2023-04-24T00:33:48;11.30;99.90
43099;DHT22;28715;51.988;6.020;2023-04-24T00:36:13;11.40;99.90
43099;DHT22;28715;51.988;6.020;2023-04-24T00:38:39;11.40;99.90
43099;DHT22;28715;51.988;6.020;2023-04-24T00:41:05;11.40;99.90
43099;DHT22;28715;51.988;6.020;2023-04-24T00:43:30;11.40;99.90
43099;DHT22;28715;51.988;6.020;2023-04-24T00:45:56;11.40;99.90
43099;DHT22;28715;51.988;6.020;2023-04-24T00:48:25;11.40;99.90
43099;DHT22;28715;51.988;6.020;2023-04-24T00:50:51;11.40;99.90
43099;DHT22;28715;51.988;6.020;2023-04-24T00:53:17;11.30;99.90
43099;DHT22;28715;51.988;6.020;2023-04-24T00:55:42;11.30;99.90
43099;DHT22;28715;51.988;6.020;2023-04-24T00:58:08;11.30;99.90
43099;DHT22;28715;51.988;6.020;2023-04-24T01:00:34;11.40;99.90
43099;DHT22;28715;51.988;6.020;2023-04-24T01:03:01;11.40;99.90
43099;DHT22;28715;51.988;6.020;2023-04-24T01:05:29;11.40;99.90
43099;DHT22;28715;51.988;6.020;2023-04-24T01:07:55;11.50;99.90
43099;DHT22;28715;51.988;6.020;2023-04-24T01:10:21;11.50;99.90
43099;DHT22;28715;51.988;6.020;2023-04-24T01:12:48;11.60;99.90
43099;DHT22;28715;51.988;6.020;2023-04-24T01:15:13;11.60;99.90
43099;DHT22;28715;51.988;6.020;2023-04-24T01:17:39;11.60;99.90
43099;DHT22;28715;51.988;6.020;2023-04-24T01:20:05;11.70;99.90
43099;DHT22;28715;51.988;6.020;2023-04-24T01:22:33;11.60;99.90
43099;DHT22;28715;51.988;6.020;2023-04-24T01:24:59;11.60;99.90
43099;DHT22;28715;51.988;6.020;2023-04-24T01:27:25;11.50;99.90
43099;DHT22;28715;51.988;6.020;2023-04-24T01:29:50;11.50;99.90
43099;DHT22;28715;51.988;6.020;2023-04-24T01:32:17;11.50;99.90
43099;DHT22;28715;51.988;6.020;2023-04-24T01:34:44;11.50;99.90
43099;DHT22;28715;51.988;6.020;2023-04-24T01:37:10;11.50;99.90
43099;DHT22;28715;51.988;6.020;2023-04-24T01:39:36;11.50;99.90
43099;DHT22;28715;51.988;6.020;2023-04-24T01:42:01;11.50;99.90
43099;DHT22;28715;51.988;6.020;2023-04-24T01:44:30;11.50;99.90
43099;DHT22;28715;51.988;6.020;2023-04-24T01:46:56;11.50;99.90
43099;DHT22;28715;51.988;6.020;2023-04-24T01:49:22;11.50;99.90
43099;DHT22;28715;51.988;6.020;2023-04-24T01:51:47;11.50;99.90
43099;DHT22;28715;51.988;6.020;2023-04-24T01:54:13;11.50;99.90
43099;DHT22;28715;51.988;6.020;2023-04-24T01:56:42;11.40;99.90
43099;DHT22;28715;51.988;6.020;2023-04-24T01:59:11;11.40;99.90
43099;DHT22;28715;51.988;6.020;2023-04-24T02:01:38;11.30;99.90
43099;DHT22;28715;51.988;6.020;2023-04-24T02:04:05;11.40;99.90
43099;DHT22;28715;51.988;6.020;2023-04-24T02:06:31;11.40;99.90
43099;DHT22;28715;51.988;6.020;2023-04-24T02:09:00;11.30;99.90
43099;DHT22;28715;51.988;6.020;2023-04-24T02:11:25;11.30;99.90
43099;DHT22;28715;51.988;6.020;2023-04-24T02:13:52;11.30;99.90
43099;DHT22;28715;51.988;6.020;2023-04-24T02:16:17;11.30;99.90
43099;DHT22;28715;51.988;6.020;2023-04-24T02:18:45;11.30;99.90
43099;DHT22;28715;51.988;6.020;2023-04-24T02:21:11;11.40;99.90
43099;DHT22;28715;51.988;6.020;2023-04-24T02:23:45;11.40;99.90
43099;DHT22;28715;51.988;6.020;2023-04-24T02:26:11;11.40;99.90
43099;DHT22;28715;51.988;6.020;2023-04-24T02:28:39;11.40;99.90
43099;DHT22;28715;51.988;6.020;2023-04-24T02:31:05;11.40;99.90
43099;DHT22;28715;51.988;6.020;2023-04-24T02:33:31;11.40;99.90
43099;DHT22;28715;51.988;6.020;2023-04-24T02:35:57;11.30;99.90
43099;DHT22;28715;51.988;6.020;2023-04-24T02:38:22;11.30;99.90
43099;DHT22;28715;51.988;6.020;2023-04-24T02:40:48;11.30;99.90
43099;DHT22;28715;51.988;6.020;2023-04-24T02:43:13;11.30;99.90
43099;DHT22;28715;51.988;6.020;2023-04-24T02:45:39;11.30;99.90
43099;DHT22;28715;51.988;6.020;2023-04-24T02:48:04;11.30;99.90
43099;DHT22;28715;51.988;6.020;2023-04-24T02:50:30;11.30;99.90
43099;DHT22;28715;51.988;6.020;2023-04-24T02:52:55;11.20;99.90
43099;DHT22;28715;51.988;6.020;2023-04-24T02:55:21;11.20;99.90
43099;DHT22;28715;51.988;6.020;2023-04-24T02:57:47;11.20;99.90
43099;DHT22;28715;51.988;6.020;2023-04-24T03:00:12;11.20;99.90
43099;DHT22;28715;51.988;6.020;2023-04-24T03:02:38;11.20;99.90
43099;DHT22;28715;51.988;6.020;2023-04-24T03:05:04;11.20;99.90
43099;DHT22;28715;51.988;6.020;2023-04-24T03:07:30;11.20;99.90
43099;DHT22;28715;51.988;6.020;2023-04-24T03:09:56;11.20;99.90
43099;DHT22;28715;51.988;6.020;2023-04-24T03:12:23;11.20;99.90
43099;DHT22;28715;51.988;6.020;2023-04-24T03:14:49;11.20;99.90
43099;DHT22;28715;51.988;6.020;2023-04-24T03:17:15;11.20;99.90
43099;DHT22;28715;51.988;6.020;2023-04-24T03:19:40;11.20;99.90
43099;DHT22;28715;51.988;6.020;2023-04-24T03:22:06;11.20;99.90
43099;DHT22;28715;51.988;6.020;2023-04-24T03:24:31;11.20;99.90
43099;DHT22;28715;51.988;6.020;2023-04-24T03:26:57;11.20;99.90
43099;DHT22;28715;51.988;6.020;2023-04-24T03:29:24;11.10;99.90
43099;DHT22;28715;51.988;6.020;2023-04-24T03:31:49;11.20;99.90
43099;DHT22;28715;51.988;6.020;2023-04-24T03:34:15;11.20;99.90
43099;DHT22;28715;51.988;6.020;2023-04-24T03:36:43;11.20;99.90
43099;DHT22;28715;51.988;6.020;2023-04-24T03:39:09;11.20;99.90
43099;DHT22;28715;51.988;6.020;2023-04-24T03:41:35;11.10;99.90
43099;DHT22;28715;51.988;6.020;2023-04-24T03:44:00;11.10;99.90
43099;DHT22;28715;51.988;6.020;2023-04-24T03:46:27;11.10;99.90
43099;DHT22;28715;51.988;6.020;2023-04-24T03:48:53;11.10;99.90
43099;DHT22;28715;51.988;6.020;2023-04-24T03:51:21;11.00;99.90
43099;DHT22;28715;51.988;6.020;2023-04-24T03:53:51;11.00;99.90
43099;DHT22;28715;51.988;6.020;2023-04-24T03:56:16;11.00;99.90
43099;DHT22;28715;51.988;6.020;2023-04-24T03:58:42;11.00;99.90
43099;DHT22;28715;51.988;6.020;2023-04-24T04:01:08;11.00;99.90
43099;DHT22;28715;51.988;6.020;2023-04-24T04:03:33;11.00;99.90
43099;DHT22;28715;51.988;6.020;2023-04-24T04:05:59;11.00;99.90
43099;DHT22;28715;51.988;6.020;2023-04-24T04:08:25;11.00;99.90
43099;DHT22;28715;51.988;6.020;2023-04-24T04:10:50;10.90;99.90
43099;DHT22;28715;51.988;6.020;2023-04-24T04:13:16;11.00;99.90
43099;DHT22;28715;51.988;6.020;2023-04-24T04:15:41;11.00;99.90
43099;DHT22;28715;51.988;6.020;2023-04-24T04:18:07;11.10;99.90
43099;DHT22;28715;51.988;6.020;2023-04-24T04:20:33;11.00;99.90
43099;DHT22;28715;51.988;6.020;2023-04-24T04:22:59;11.00;99.90
43099;DHT22;28715;51.988;6.020;2023-04-24T04:25:25;11.00;99.90
43099;DHT22;28715;51.988;6.020;2023-04-24T04:27:50;10.90;99.90
43099;DHT22;28715;51.988;6.020;2023-04-24T04:30:16;10.90;99.90
43099;DHT22;28715;51.988;6.020;2023-04-24T04:32:43;10.80;99.90
43099;DHT22;28715;51.988;6.020;2023-04-24T04:35:09;10.80;99.90
43099;DHT22;28715;51.988;6.020;2023-04-24T04:37:38;10.80;99.90
43099;DHT22;28715;51.988;6.020;2023-04-24T04:40:05;10.70;99.90
43099;DHT22;28715;51.988;6.020;2023-04-24T04:42:32;10.70;99.90
43099;DHT22;28715;51.988;6.020;2023-04-24T04:44:59;10.70;99.90
43099;DHT22;28715;51.988;6.020;2023-04-24T04:47:25;10.80;99.90
43099;DHT22;28715;51.988;6.020;2023-04-24T04:49:51;10.80;99.90
43099;DHT22;28715;51.988;6.020;2023-04-24T04:52:18;10.80;99.90
43099;DHT22;28715;51.988;6.020;2023-04-24T04:54:43;10.80;99.90
43099;DHT22;28715;51.988;6.020;2023-04-24T04:57:10;10.70;99.90
43099;DHT22;28715;51.988;6.020;2023-04-24T04:59:35;10.70;99.90
43099;DHT22;28715;51.988;6.020;2023-04-24T05:02:02;10.80;99.90
43099;DHT22;28715;51.988;6.020;2023-04-24T05:04:27;10.70;99.90
43099;DHT22;28715;51.988;6.020;2023-04-24T05:06:53;10.70;99.90
43099;DHT22;28715;51.988;6.020;2023-04-24T05:09:22;10.70;99.90
43099;DHT22;28715;51.988;6.020;2023-04-24T05:11:47;10.70;99.90
43099;DHT22;28715;51.988;6.020;2023-04-24T05:14:13;10.60;99.90
43099;DHT22;28715;51.988;6.020;2023-04-24T05:16:39;10.70;99.90
43099;DHT22;28715;51.988;6.020;2023-04-24T05:19:05;10.60;99.90
43099;DHT22;28715;51.988;6.020;2023-04-24T05:21:31;10.60;99.90
43099;DHT22;28715;51.988;6.020;2023-04-24T05:23:56;10.60;99.90
43099;DHT22;28715;51.988;6.020;2023-04-24T05:26:22;10.50;99.90
43099;DHT22;28715;51.988;6.020;2023-04-24T05:28:48;10.60;99.90
43099;DHT22;28715;51.988;6.020;2023-04-24T05:31:13;10.60;99.90
43099;DHT22;28715;51.988;6.020;2023-04-24T05:33:39;10.50;99.90
43099;DHT22;28715;51.988;6.020;2023-04-24T05:36:06;10.40;99.90
43099;DHT22;28715;51.988;6.020;2023-04-24T05:38:31;10.40;99.90
43099;DHT22;28715;51.988;6.020;2023-04-24T05:40:57;10.40;99.90
43099;DHT22;28715;51.988;6.020;2023-04-24T05:43:23;10.40;99.90
43099;DHT22;28715;51.988;6.020;2023-04-24T05:45:48;10.60;99.90
43099;DHT22;28715;51.988;6.020;2023-04-24T05:48:14;10.60;99.90
43099;DHT22;28715;51.988;6.020;2023-04-24T05:50:39;10.60;99.90
43099;DHT22;28715;51.988;6.020;2023-04-24T05:53:08;10.60;99.90
43099;DHT22;28715;51.988;6.020;2023-04-24T05:55:38;10.70;99.90
43099;DHT22;28715;51.988;6.020;2023-04-24T05:58:03;10.80;99.90
43099;DHT22;28715;51.988;6.020;2023-04-24T06:00:29;10.90;99.90
43099;DHT22;28715;51.988;6.020;2023-04-24T06:02:56;10.90;99.90
43099;DHT22;28715;51.988;6.020;2023-04-24T06:05:22;11.00;99.90
43099;DHT22;28715;51.988;6.020;2023-04-24T06:07:48;11.00;99.90
43099;DHT22;28715;51.988;6.020;2023-04-24T06:10:13;11.10;99.90
43099;DHT22;28715;51.988;6.020;2023-04-24T06:12:39;11.10;99.90
43099;DHT22;28715;51.988;6.020;2023-04-24T06:15:05;11.20;99.90
43099;DHT22;28715;51.988;6.020;2023-04-24T06:17:31;11.20;99.90
43099;DHT22;28715;51.988;6.020;2023-04-24T06:19:57;11.30;99.90
43099;DHT22;28715;51.988;6.020;2023-04-24T06:22:23;11.30;99.90
43099;DHT22;28715;51.988;6.020;2023-04-24T06:24:48;11.40;99.90
43099;DHT22;28715;51.988;6.020;2023-04-24T06:27:14;11.40;99.90
43099;DHT22;28715;51.988;6.020;2023-04-24T06:29:40;11.40;99.90
43099;DHT22;28715;51.988;6.020;2023-04-24T06:32:05;11.40;99.90
43099;DHT22;28715;51.988;6.020;2023-04-24T06:34:31;11.40;99.90
43099;DHT22;28715;51.988;6.020;2023-04-24T06:36:58;11.50;99.90
43099;DHT22;28715;51.988;6.020;2023-04-24T06:39:23;11.50;99.90
43099;DHT22;28715;51.988;6.020;2023-04-24T06:41:49;11.50;99.90
43099;DHT22;28715;51.988;6.020;2023-04-24T06:44:14;11.60;99.90
43099;DHT22;28715;51.988;6.020;2023-04-24T06:46:41;11.50;99.90
43099;DHT22;28715;51.988;6.020;2023-04-24T06:49:06;11.60;99.90
43099;DHT22;28715;51.988;6.020;2023-04-24T06:51:32;11.60;99.90
43099;DHT22;28715;51.988;6.020;2023-04-24T06:53:59;11.60;99.90
43099;DHT22;28715;51.988;6.020;2023-04-24T06:56:25;11.70;99.90
43099;DHT22;28715;51.988;6.020;2023-04-24T06:58:51;11.70;99.90
43099;DHT22;28715;51.988;6.020;2023-04-24T07:01:17;11.70;99.90
43099;DHT22;28715;51.988;6.020;2023-04-24T07:03:42;11.80;99.90
43099;DHT22;28715;51.988;6.020;2023-04-24T07:06:09;11.70;99.90
43099;DHT22;28715;51.988;6.020;2023-04-24T07:08:36;11.70;99.90
43099;DHT22;28715;51.988;6.020;2023-04-24T07:11:02;11.80;99.90
43099;DHT22;28715;51.988;6.020;2023-04-24T07:13:28;11.80;99.90
43099;DHT22;28715;51.988;6.020;2023-04-24T07:15:53;11.90;99.90
43099;DHT22;28715;51.988;6.020;2023-04-24T07:18:20;11.90;99.90
43099;DHT22;28715;51.988;6.020;2023-04-24T07:20:46;12.00;99.90
43099;DHT22;28715;51.988;6.020;2023-04-24T07:23:11;11.90;99.90
43099;DHT22;28715;51.988;6.020;2023-04-24T07:25:37;11.90;99.90
43099;DHT22;28715;51.988;6.020;2023-04-24T07:28:04;11.90;99.90
43099;DHT22;28715;51.988;6.020;2023-04-24T07:30:30;11.90;99.90
43099;DHT22;28715;51.988;6.020;2023-04-24T07:32:58;11.80;99.90
43099;DHT22;28715;51.988;6.020;2023-04-24T07:35:23;11.70;99.90
43099;DHT22;28715;51.988;6.020;2023-04-24T07:37:51;11.50;99.90
43099;DHT22;28715;51.988;6.020;2023-04-24T07:40:16;11.50;99.90
43099;DHT22;28715;51.988;6.020;2023-04-24T07:42:42;11.50;99.90
43099;DHT22;28715;51.988;6.020;2023-04-24T07:45:09;11.40;99.90
43099;DHT22;28715;51.988;6.020;2023-04-24T07:47:34;11.50;99.90
43099;DHT22;28715;51.988;6.020;2023-04-24T07:50:01;11.40;99.90
43099;DHT22;28715;51.988;6.020;2023-04-24T07:52:27;11.40;99.90
43099;DHT22;28715;51.988;6.020;2023-04-24T07:54:54;11.40;99.90
43099;DHT22;28715;51.988;6.020;2023-04-24T07:57:24;11.20;99.90
43099;DHT22;28715;51.988;6.020;2023-04-24T07:59:50;11.00;99.90
43099;DHT22;28715;51.988;6.020;2023-04-24T08:02:16;10.80;99.90
43099;DHT22;28715;51.988;6.020;2023-04-24T08:04:41;10.70;99.90
43099;DHT22;28715;51.988;6.020;2023-04-24T08:07:07;10.60;99.90
43099;DHT22;28715;51.988;6.020;2023-04-24T08:09:33;10.60;99.90
43099;DHT22;28715;51.988;6.020;2023-04-24T08:11:59;10.40;99.90
43099;DHT22;28715;51.988;6.020;2023-04-24T08:14:25;10.30;99.90
43099;DHT22;28715;51.988;6.020;2023-04-24T08:16:50;10.30;99.90
43099;DHT22;28715;51.988;6.020;2023-04-24T08:19:16;10.30;99.90
43099;DHT22;28715;51.988;6.020;2023-04-24T08:21:41;10.10;99.90
43099;DHT22;28715;51.988;6.020;2023-04-24T08:24:07;10.00;99.90
43099;DHT22;28715;51.988;6.020;2023-04-24T08:26:33;10.00;99.90
43099;DHT22;28715;51.988;6.020;2023-04-24T08:28:59;9.90;99.90
43099;DHT22;28715;51.988;6.020;2023-04-24T08:31:24;9.90;99.90
43099;DHT22;28715;51.988;6.020;2023-04-24T08:33:51;9.90;99.90
43099;DHT22;28715;51.988;6.020;2023-04-24T08:36:16;9.90;99.90
43099;DHT22;28715;51.988;6.020;2023-04-24T08:38:42;9.80;99.90
43099;DHT22;28715;51.988;6.020;2023-04-24T08:41:09;9.80;99.90
43099;DHT22;28715;51.988;6.020;2023-04-24T08:43:35;9.90;99.90
43099;DHT22;28715;51.988;6.020;2023-04-24T08:46:03;9.90;99.90
43099;DHT22;28715;51.988;6.020;2023-04-24T08:48:30;10.00;99.90
43099;DHT22;28715;51.988;6.020;2023-04-24T08:50:57;10.00;99.90
43099;DHT22;28715;51.988;6.020;2023-04-24T08:53:24;10.00;99.90
43099;DHT22;28715;51.988;6.020;2023-04-24T08:55:51;10.00;99.90
43099;DHT22;28715;51.988;6.020;2023-04-24T08:58:19;10.10;99.90
43099;DHT22;28715;51.988;6.020;2023-04-24T09:00:45;10.10;99.90
43099;DHT22;28715;51.988;6.020;2023-04-24T09:03:14;10.10;99.90
43099;DHT22;28715;51.988;6.020;2023-04-24T09:05:42;10.10;99.90
43099;DHT22;28715;51.988;6.020;2023-04-24T09:08:11;10.10;99.90
43099;DHT22;28715;51.988;6.020;2023-04-24T09:10:39;10.10;99.90
43099;DHT22;28715;51.988;6.020;2023-04-24T09:13:05;10.20;99.90
43099;DHT22;28715;51.988;6.020;2023-04-24T09:15:31;10.20;99.90
43099;DHT22;28715;51.988;6.020;2023-04-24T09:17:57;10.20;99.90
43099;DHT22;28715;51.988;6.020;2023-04-24T09:20:22;10.20;99.90
43099;DHT22;28715;51.988;6.020;2023-04-24T09:22:48;10.20;99.90
43099;DHT22;28715;51.988;6.020;2023-04-24T09:25:18;10.10;99.90
43099;DHT22;28715;51.988;6.020;2023-04-24T09:27:45;10.10;99.90
43099;DHT22;28715;51.988;6.020;2023-04-24T09:30:11;10.10;99.90
43099;DHT22;28715;51.988;6.020;2023-04-24T09:32:37;10.10;99.90
43099;DHT22;28715;51.988;6.020;2023-04-24T09:35:14;10.10;99.90
43099;DHT22;28715;51.988;6.020;2023-04-24T09:37:42;10.10;99.90
43099;DHT22;28715;51.988;6.020;2023-04-24T09:40:19;10.00;99.90
43099;DHT22;28715;51.988;6.020;2023-04-24T09:42:53;10.00;99.90
43099;DHT22;28715;51.988;6.020;2023-04-24T09:45:20;10.10;99.90
43099;DHT22;28715;51.988;6.020;2023-04-24T09:47:45;10.10;99.90
43099;DHT22;28715;51.988;6.020;2023-04-24T09:50:16;10.10;99.90
43099;DHT22;28715;51.988;6.020;2023-04-24T09:52:46;10.10;99.90
43099;DHT22;28715;51.988;6.020;2023-04-24T09:55:21;10.10;99.90
43099;DHT22;28715;51.988;6.020;2023-04-24T09:57:53;10.20;99.90
43099;DHT22;28715;51.988;6.020;2023-04-24T10:00:30;10.20;99.90
43099;DHT22;28715;51.988;6.020;2023-04-24T10:02:57;10.30;99.90
43099;DHT22;28715;51.988;6.020;2023-04-24T10:05:27;10.40;99.90
43099;DHT22;28715;51.988;6.020;2023-04-24T10:07:56;10.50;99.90
43099;DHT22;28715;51.988;6.020;2023-04-24T10:10:22;10.50;99.90
43099;DHT22;28715;51.988;6.020;2023-04-24T10:12:49;10.60;99.90
43099;DHT22;28715;51.988;6.020;2023-04-24T10:15:16;10.70;99.90
43099;DHT22;28715;51.988;6.020;2023-04-24T10:17:48;10.80;99.90
43099;DHT22;28715;51.988;6.020;2023-04-24T10:20:18;11.00;99.90
43099;DHT22;28715;51.988;6.020;2023-04-24T10:22:46;11.10;99.90
43099;DHT22;28715;51.988;6.020;2023-04-24T10:27:58;11.30;99.90
43099;DHT22;28715;51.988;6.020;2023-04-24T10:30:29;11.40;99.90
43099;DHT22;28715;51.988;6.020;2023-04-24T10:32:56;11.70;99.90
43099;DHT22;28715;51.988;6.020;2023-04-24T10:35:22;11.90;99.90
43099;DHT22;28715;51.988;6.020;2023-04-24T10:37:57;12.10;99.90
43099;DHT22;28715;51.988;6.020;2023-04-24T10:40:31;12.40;99.90
43099;DHT22;28715;51.988;6.020;2023-04-24T10:42:59;12.50;99.90
43099;DHT22;28715;51.988;6.020;2023-04-24T10:45:27;12.50;99.90
43099;DHT22;28715;51.988;6.020;2023-04-24T10:48:01;12.40;99.90
43099;DHT22;28715;51.988;6.020;2023-04-24T10:50:28;12.30;98.90
43099;DHT22;28715;51.988;6.020;2023-04-24T10:53:06;12.20;99.30
43099;DHT22;28715;51.988;6.020;2023-04-24T10:55:46;12.00;99.60
43099;DHT22;28715;51.988;6.020;2023-04-24T10:58:12;11.90;99.20
43099;DHT22;28715;51.988;6.020;2023-04-24T11:00:39;11.70;99.50
43099;DHT22;28715;51.988;6.020;2023-04-24T11:03:28;11.50;99.20
43099;DHT22;28715;51.988;6.020;2023-04-24T11:05:59;11.40;99.20
43099;DHT22;28715;51.988;6.020;2023-04-24T11:08:27;11.40;99.40
43099;DHT22;28715;51.988;6.020;2023-04-24T11:11:00;11.30;99.40
43099;DHT22;28715;51.988;6.020;2023-04-24T11:14:00;11.30;99.60
43099;DHT22;28715;51.988;6.020;2023-04-24T11:16:15;11.30;99.70
43099;DHT22;28715;51.988;6.020;2023-04-24T11:18:45;11.40;99.50
43099;DHT22;28715;51.988;6.020;2023-04-24T11:21:17;11.50;99.70
43099;DHT22;28715;51.988;6.020;2023-04-24T11:23:43;11.60;99.10
43099;DHT22;28715;51.988;6.020;2023-04-24T11:26:17;11.60;99.10
43099;DHT22;28715;51.988;6.020;2023-04-24T11:28:47;11.50;99.20
43099;DHT22;28715;51.988;6.020;2023-04-24T11:31:35;11.50;99.50
43099;DHT22;28715;51.988;6.020;2023-04-24T11:34:09;11.50;99.90
43099;DHT22;28715;51.988;6.020;2023-04-24T11:36:36;11.70;99.30
43099;DHT22;28715;51.988;6.020;2023-04-24T11:39:02;11.80;99.40
43099;DHT22;28715;51.988;6.020;2023-04-24T11:41:29;11.90;99.10
43099;DHT22;28715;51.988;6.020;2023-04-24T11:43:56;12.10;98.50
43099;DHT22;28715;51.988;6.020;2023-04-24T11:46:22;12.10;97.80
43099;DHT22;28715;51.988;6.020;2023-04-24T11:48:47;12.20;98.30
43099;DHT22;28715;51.988;6.020;2023-04-24T11:51:14;12.20;97.70
43099;DHT22;28715;51.988;6.020;2023-04-24T11:53:40;12.20;97.50
43099;DHT22;28715;51.988;6.020;2023-04-24T11:56:05;12.30;97.80
43099;DHT22;28715;51.988;6.020;2023-04-24T11:58:38;12.30;97.70
43099;DHT22;28715;51.988;6.020;2023-04-24T12:01:04;12.30;97.50
43099;DHT22;28715;51.988;6.020;2023-04-24T12:03:31;12.30;96.70
43099;DHT22;28715;51.988;6.020;2023-04-24T12:06:10;12.20;96.80
43099;DHT22;28715;51.988;6.020;2023-04-24T12:08:36;12.20;97.30
43099;DHT22;28715;51.988;6.020;2023-04-24T12:11:03;12.20;97.00
43099;DHT22;28715;51.988;6.020;2023-04-24T12:13:29;12.10;97.00
43099;DHT22;28715;51.988;6.020;2023-04-24T12:15:57;12.10;97.40
43099;DHT22;28715;51.988;6.020;2023-04-24T12:18:23;11.90;97.60
43099;DHT22;28715;51.988;6.020;2023-04-24T12:20:49;11.80;98.40
43099;DHT22;28715;51.988;6.020;2023-04-24T12:23:15;11.60;99.00
43099;DHT22;28715;51.988;6.020;2023-04-24T12:25:41;11.40;99.50
43099;DHT22;28715;51.988;6.020;2023-04-24T12:28:12;11.40;99.90
43099;DHT22;28715;51.988;6.020;2023-04-24T12:30:41;11.40;99.90
43099;DHT22;28715;51.988;6.020;2023-04-24T12:33:08;11.60;99.90
43099;DHT22;28715;51.988;6.020;2023-04-24T12:35:34;11.90;99.90
43099;DHT22;28715;51.988;6.020;2023-04-24T12:38:12;12.10;99.90
43099;DHT22;28715;51.988;6.020;2023-04-24T12:40:38;12.20;99.70
43099;DHT22;28715;51.988;6.020;2023-04-24T12:43:18;12.40;99.40
43099;DHT22;28715;51.988;6.020;2023-04-24T12:45:44;12.50;98.90
43099;DHT22;28715;51.988;6.020;2023-04-24T12:48:10;12.60;98.00
43099;DHT22;28715;51.988;6.020;2023-04-24T12:50:36;12.70;97.70
43099;DHT22;28715;51.988;6.020;2023-04-24T12:53:01;12.80;97.00
43099;DHT22;28715;51.988;6.020;2023-04-24T12:55:27;12.80;96.80
43099;DHT22;28715;51.988;6.020;2023-04-24T12:57:53;12.80;96.50
43099;DHT22;28715;51.988;6.020;2023-04-24T13:00:20;12.80;96.40
43099;DHT22;28715;51.988;6.020;2023-04-24T13:02:46;12.70;96.30
43099;DHT22;28715;51.988;6.020;2023-04-24T13:05:12;12.80;96.50
43099;DHT22;28715;51.988;6.020;2023-04-24T13:07:39;12.70;96.20
43099;DHT22;28715;51.988;6.020;2023-04-24T13:10:05;12.60;96.20
43099;DHT22;28715;51.988;6.020;2023-04-24T13:12:31;12.60;96.40
43099;DHT22;28715;51.988;6.020;2023-04-24T13:14:58;12.60;96.70
43099;DHT22;28715;51.988;6.020;2023-04-24T13:17:24;12.70;97.00
43099;DHT22;28715;51.988;6.020;2023-04-24T13:19:51;12.80;96.70
43099;DHT22;28715;51.988;6.020;2023-04-24T13:22:17;13.00;96.70
43099;DHT22;28715;51.988;6.020;2023-04-24T13:24:44;13.00;96.50
43099;DHT22;28715;51.988;6.020;2023-04-24T13:27:10;13.10;95.90
43099;DHT22;28715;51.988;6.020;2023-04-24T13:29:36;13.10;95.70
43099;DHT22;28715;51.988;6.020;2023-04-24T13:32:02;13.00;95.50
43099;DHT22;28715;51.988;6.020;2023-04-24T13:34:28;13.00;95.40
43099;DHT22;28715;51.988;6.020;2023-04-24T13:36:55;12.90;95.20
43099;DHT22;28715;51.988;6.020;2023-04-24T13:39:22;12.80;95.50
43099;DHT22;28715;51.988;6.020;2023-04-24T13:41:48;12.60;95.00
43099;DHT22;28715;51.988;6.020;2023-04-24T13:44:17;12.50;94.80
43099;DHT22;28715;51.988;6.020;2023-04-24T13:46:44;12.40;95.00
43099;DHT22;28715;51.988;6.020;2023-04-24T13:49:11;12.30;95.40
43099;DHT22;28715;51.988;6.020;2023-04-24T13:51:36;12.20;95.20
43099;DHT22;28715;51.988;6.020;2023-04-24T13:54:02;12.20;95.70
43099;DHT22;28715;51.988;6.020;2023-04-24T13:56:27;12.10;95.80
43099;DHT22;28715;51.988;6.020;2023-04-24T13:58:53;12.10;95.50
43099;DHT22;28715;51.988;6.020;2023-04-24T14:01:22;12.00;95.50
43099;DHT22;28715;51.988;6.020;2023-04-24T14:03:51;11.90;96.00
43099;DHT22;28715;51.988;6.020;2023-04-24T14:06:18;11.70;96.90
43099;DHT22;28715;51.988;6.020;2023-04-24T14:08:44;11.60;97.20
43099;DHT22;28715;51.988;6.020;2023-04-24T14:11:10;11.60;97.70
43099;DHT22;28715;51.988;6.020;2023-04-24T14:13:36;11.60;98.30
43099;DHT22;28715;51.988;6.020;2023-04-24T14:16:03;11.80;98.90
43099;DHT22;28715;51.988;6.020;2023-04-24T14:18:29;12.00;98.00
43099;DHT22;28715;51.988;6.020;2023-04-24T14:20:54;12.20;98.20
43099;DHT22;28715;51.988;6.020;2023-04-24T14:23:20;12.40;97.10
43099;DHT22;28715;51.988;6.020;2023-04-24T14:25:46;12.50;96.00
43099;DHT22;28715;51.988;6.020;2023-04-24T14:28:13;12.60;95.20
43099;DHT22;28715;51.988;6.020;2023-04-24T14:30:39;12.60;94.20
43099;DHT22;28715;51.988;6.020;2023-04-24T14:33:06;12.60;94.10
43099;DHT22;28715;51.988;6.020;2023-04-24T14:35:31;12.60;94.60
43099;DHT22;28715;51.988;6.020;2023-04-24T14:37:59;12.60;94.20
43099;DHT22;28715;51.988;6.020;2023-04-24T14:40:25;12.80;94.50
43099;DHT22;28715;51.988;6.020;2023-04-24T14:42:51;12.90;93.90
43099;DHT22;28715;51.988;6.020;2023-04-24T14:45:16;12.80;93.00
43099;DHT22;28715;51.988;6.020;2023-04-24T14:47:42;12.70;92.60
43099;DHT22;28715;51.988;6.020;2023-04-24T14:50:08;12.60;93.10
43099;DHT22;28715;51.988;6.020;2023-04-24T14:52:33;12.40;93.10
43099;DHT22;28715;51.988;6.020;2023-04-24T14:55:00;12.30;92.90
43099;DHT22;28715;51.988;6.020;2023-04-24T14:57:25;12.20;92.90
43099;DHT22;28715;51.988;6.020;2023-04-24T14:59:51;12.20;93.40
43099;DHT22;28715;51.988;6.020;2023-04-24T15:02:16;12.10;93.10
43099;DHT22;28715;51.988;6.020;2023-04-24T15:04:42;12.00;92.40
43099;DHT22;28715;51.988;6.020;2023-04-24T15:07:08;12.00;92.30
43099;DHT22;28715;51.988;6.020;2023-04-24T15:09:33;12.10;92.30
43099;DHT22;28715;51.988;6.020;2023-04-24T15:11:59;12.10;92.40
43099;DHT22;28715;51.988;6.020;2023-04-24T15:14:25;12.10;91.70
43099;DHT22;28715;51.988;6.020;2023-04-24T15:16:50;12.10;92.00
43099;DHT22;28715;51.988;6.020;2023-04-24T15:19:16;12.10;92.00
43099;DHT22;28715;51.988;6.020;2023-04-24T15:21:42;12.00;92.40
43099;DHT22;28715;51.988;6.020;2023-04-24T15:24:08;12.10;92.40
43099;DHT22;28715;51.988;6.020;2023-04-24T15:26:34;12.10;92.30
43099;DHT22;28715;51.988;6.020;2023-04-24T15:28:59;12.10;92.80
43099;DHT22;28715;51.988;6.020;2023-04-24T15:31:25;12.20;92.50